Time;durP1;ratioP1;P1;durP2;ratioP2;P2;SDS_P1;SDS_P2;PMS_P1;PMS_P2;Temp;Humidity;BMP_temperature;BMP_pressure;BME280_temperature;BME280_humidity;BME280_pressure;Samples;Min_cycle;Max_cycle;Signal;HPM_P1;HPM_P2
2021/11/30 00:01:41;;;;;;;;;;;;;;;;;;5071909;28;19978;-65
2021/11/30 00:04:08;;;;;;;;;;;;;;;;;;5065677;28;19932;-67
2021/11/30 00:06:35;;;;;;;;;;;;;;;;;;5078092;28;19924;-67
2021/11/30 00:09:20;;;;;;;;;;;;;;;;;;5075381;28;19988;-64
2021/11/30 00:11:46;;;;;;;;;;;;;;;;;;5066562;28;19974;-66
2021/11/30 00:14:13;;;;;;;;;;;;;;;;;;5069933;28;19921;-67
2021/11/30 00:16:40;;;;;;;;;;;;;;;;;;5077325;28;19971;-66
2021/11/30 00:19:07;;;;;;;;;;;;;;;;;;5064262;28;19931;-67
2021/11/30 00:21:34;;;;;;;;;;;;;;;;;;5063624;28;19931;-65
2021/11/30 00:24:01;;;;;;;;;;;;;;;;;;5079318;28;19925;-67
2021/11/30 00:26:28;;;;;;;;;;;;;;;;;;5067495;28;19988;-65
2021/11/30 00:28:55;;;;;;;;;;;;;;;;;;5074776;28;19988;-66
2021/11/30 00:31:23;;;;;;;;;;;;;;;;;;5077245;28;19924;-66
2021/11/30 00:33:50;;;;;;;;;;;;;;;;;;5071495;28;19925;-64
2021/11/30 00:36:18;;;;;;;;;;;;;;;;;;5077112;28;19925;-67
2021/11/30 00:38:45;;;;;;;;;;;;;;;;;;5075726;28;19932;-66
2021/11/30 00:41:12;;;;;;;;;;;;;;;;;;5064998;28;19933;-66
2021/11/30 00:43:40;;;;;;;;;;;;;;;;;;5074237;28;19981;-66
2021/11/30 00:46:12;;;;;;;;;;;;;;;;;;5074369;28;20404;-66
2021/11/30 00:48:39;;;;;;;;;;;;;;;;;;5077443;28;19991;-65
2021/11/30 00:51:06;;;;;;;;;;;;;;;;;;5063944;28;19924;-65
2021/11/30 00:53:34;;;;;;;;;;;;;;;;;;5064176;28;20307;-66
2021/11/30 00:56:01;;;;;;;;;;;;;;;;;;5064483;28;20011;-66
2021/11/30 00:58:28;;;;;;;;;;;;;;;;;;5079121;28;19935;-66
2021/11/30 01:00:55;;;;;;;;;;;;;;;;;;5070311;28;20024;-64
2021/11/30 01:03:22;;;;;;;;;;;;;;;;;;5072320;28;19989;-66
2021/11/30 01:05:49;;;;;;;;;;;;;;;;;;5069855;28;20411;-65
2021/11/30 01:08:16;;;;;;;;;;;;;;;;;;5075292;28;19925;-65
2021/11/30 01:10:43;;;;;;;;;;;;;;;;;;5058051;28;19943;-66
2021/11/30 01:13:10;;;;;;;;;;;;;;;;;;5055757;28;19929;-66
2021/11/30 01:15:38;;;;;;;;;;;;;;;;;;5057790;28;19924;-67
2021/11/30 01:18:05;;;;;;;;;;;;;;;;;;5069001;28;19955;-67
2021/11/30 01:20:32;;;;;;;;;;;;;;;;;;5065717;28;20011;-66
2021/11/30 01:22:58;;;;;;;;;;;;;;;;;;5059648;28;19928;-65
2021/11/30 01:25:25;;;;;;;;;;;;;;;;;;5072408;28;19924;-67
2021/11/30 01:27:55;;;;;;;;;;;;;;;;;;5073710;28;19925;-62
2021/11/30 01:30:22;;;;;;;;;;;;;;;;;;5073976;28;19924;-62
2021/11/30 01:32:49;;;;;;;;;;;;;;;;;;5068820;28;20016;-66
2021/11/30 01:35:16;;;;;;;;;;;;;;;;;;5079483;28;20509;-65
2021/11/30 01:37:43;;;;;;;;;;;;;;;;;;5092889;28;19930;-65
2021/11/30 01:40:10;;;;;;;;;;;;;;;;;;5084763;28;19952;-65
2021/11/30 01:42:41;;;;;;;;;;;;;;;;;;5081939;28;19964;-63
2021/11/30 01:45:10;;;;;;;;;;;;;;;;;;5079598;28;19931;-62
2021/11/30 07:49:54;;;;;;;;;;;;;;;;;;5025152;28;20351;-68
2021/11/30 07:52:21;;;;;;;;;;;;;;;;;;5031432;28;19929;-67
2021/11/30 07:54:48;;;;;;;;;;;;;;;;;;5030027;28;19925;-67
2021/11/30 07:57:15;;;;;;;;;;;;;;;;;;5028879;28;19933;-68
2021/11/30 07:59:42;;;;;;;;;;;;;;;;;;5029273;28;19929;-69
2021/11/30 08:02:09;;;;;;;;;;;;;;;;;;5026785;28;19933;-67
2021/11/30 08:04:36;;;;;;;;;;;;;;;;;;5025417;28;19925;-68
2021/11/30 08:07:03;;;;;;;;;;;;;;;;;;5023511;28;19926;-65
2021/11/30 08:09:34;;;;;;;;;;;;;;;;;;5024482;28;19931;-69
2021/11/30 08:12:01;;;;;;;;;;;;;;;;;;5027839;28;19925;-66
2021/11/30 08:14:28;;;;;;;;;;;;;;;;;;5027481;28;20015;-68
2021/11/30 08:16:55;;;;;;;;;;;;;;;;;;5021686;28;19925;-69
2021/11/30 08:19:23;;;;;;;;;;;;;;;;;;5026716;28;19932;-68
2021/11/30 08:21:50;;;;;;;;;;;;;;;;;;5029654;28;19926;-68
2021/11/30 08:24:17;;;;;;;;;;;;;;;;;;5027477;28;19925;-68
2021/11/30 08:26:44;;;;;;;;;;;;;;;;;;5026509;28;19932;-68
2021/11/30 08:29:11;;;;;;;;;;;;;;;;;;5027191;28;20312;-67
2021/11/30 08:31:38;;;;;;;;;;;;;;;;;;5027230;28;19933;-69
2021/11/30 08:34:05;;;;;;;;;;;;;;;;;;5030550;28;20016;-68
2021/11/30 08:36:32;;;;;;;;;;;;;;;;;;5025755;28;19947;-69
2021/11/30 08:39:00;;;;;;;;;;;;;;;;;;5026020;28;19951;-69
2021/11/30 08:41:27;;;;;;;;;;;;;;;;;;5028102;28;20016;-69
2021/11/30 08:43:53;;;;;;;;;;;;;;;;;;5024380;28;19926;-69
2021/11/30 08:46:20;;;;;;;;;;;;;;;;;;5024659;28;19925;-69
2021/11/30 08:48:47;;;;;;;;;;;;;;;;;;5030355;28;19925;-69
2021/11/30 08:51:14;;;;;;;;;;;;;;;;;;5023566;28;20312;-69
2021/11/30 08:53:41;;;;;;;;;;;;;;;;;;5028432;28;19925;-68
2021/11/30 08:56:09;;;;;;;;;;;;;;;;;;5029223;28;19929;-67
2021/11/30 08:58:35;;;;;;;;;;;;;;;;;;5028988;28;19925;-69
2021/11/30 09:01:02;;;;;;;;;;;;;;;;;;5028116;28;19931;-67
2021/11/30 09:03:29;;;;;;;;;;;;;;;;;;5025572;28;19925;-67
2021/11/30 09:05:57;;;;;;;;;;;;;;;;;;5025308;28;19952;-69
2021/11/30 09:08:24;;;;;;;;;;;;;;;;;;5025941;28;19929;-68
2021/11/30 09:10:51;;;;;;;;;;;;;;;;;;5023757;28;19928;-67
2021/11/30 09:13:18;;;;;;;;;;;;;;;;;;5024829;28;19925;-67
2021/11/30 09:15:45;;;;;;;;;;;;;;;;;;5025531;28;19925;-67
2021/11/30 09:18:12;;;;;;;;;;;;;;;;;;5026370;28;19925;-68
2021/11/30 09:20:39;;;;;;;;;;;;;;;;;;5025220;28;19925;-69
2021/11/30 09:23:06;;;;;;;;;;;;;;;;;;5027196;28;19925;-68
2021/11/30 09:25:32;;;;;;;;;;;;;;;;;;5022602;28;19948;-69
2021/11/30 09:28:02;;;;;;;;;;;;;;;;;;5027855;28;20360;-68
2021/11/30 09:30:29;;;;;;;;;;;;;;;;;;5031062;28;19933;-70
2021/11/30 09:32:56;;;;;;;;;;;;;;;;;;5026259;28;19936;-68
2021/11/30 09:35:23;;;;;;;;;;;;;;;;;;5026187;28;20382;-69
2021/11/30 09:37:50;;;;;;;;;;;;;;;;;;5024107;28;19929;-68
2021/11/30 09:40:17;;;;;;;;;;;;;;;;;;5028596;28;19925;-69
2021/11/30 09:42:44;;;;;;;;;;;;;;;;;;5024645;28;19925;-68
2021/11/30 09:45:11;;;;;;;;;;;;;;;;;;5025578;28;19948;-67
2021/11/30 09:47:38;;;;;;;;;;;;;;;;;;5026161;28;20415;-69
2021/11/30 09:50:05;;;;;;;;;;;;;;;;;;5025497;28;20095;-69
2021/11/30 09:52:32;;;;;;;;;;;;;;;;;;5021690;28;19925;-69
2021/11/30 09:54:59;;;;;;;;;;;;;;;;;;5030847;28;19925;-69
2021/11/30 09:57:26;;;;;;;;;;;;;;;;;;5023115;28;20306;-69
2021/11/30 09:59:53;;;;;;;;;;;;;;;;;;5025486;28;19925;-69
2021/11/30 10:02:20;;;;;;;;;;;;;;;;;;5028302;28;19926;-69
2021/11/30 10:04:47;;;;;;;;;;;;;;;;;;5030331;28;19930;-69
2021/11/30 10:07:14;;;;;;;;;;;;;;;;;;5028629;28;20285;-69
2021/11/30 10:09:41;;;;;;;;;;;;;;;;;;5025790;28;19932;-67
2021/11/30 10:12:08;;;;;;;;;;;;;;;;;;5023894;28;19968;-67
2021/11/30 10:14:35;;;;;;;;;;;;;;;;;;5026518;28;19925;-68
2021/11/30 10:17:02;;;;;;;;;;;;;;;;;;5026727;28;19929;-67
2021/11/30 10:19:29;;;;;;;;;;;;;;;;;;5028927;28;19940;-67
2021/11/30 10:21:57;;;;;;;;;;;;;;;;;;5027321;28;19925;-65
2021/11/30 10:24:24;;;;;;;;;;;;;;;;;;5030142;28;20027;-68
2021/11/30 10:26:50;;;;;;;;;;;;;;;;;;5026547;28;19948;-66
2021/11/30 10:29:17;;;;;;;;;;;;;;;;;;5025262;28;19925;-67
2021/11/30 10:31:44;;;;;;;;;;;;;;;;;;5028626;28;19925;-68
2021/11/30 10:34:11;;;;;;;;;;;;;;;;;;5028496;28;19925;-68
2021/11/30 10:36:38;;;;;;;;;;;;;;;;;;5031351;28;19936;-67
2021/11/30 10:39:05;;;;;;;;;;;;;;;;;;5023696;28;20419;-67
2021/11/30 10:41:32;;;;;;;;;;;;;;;;;;5019070;28;20150;-68
2021/11/30 10:43:59;;;;;;;;;;;;;;;;;;5022003;28;19926;-67
2021/11/30 10:46:26;;;;;;;;;;;;;;;;;;5022436;28;19925;-68
2021/11/30 10:48:53;;;;;;;;;;;;;;;;;;5023342;28;19936;-67
2021/11/30 10:51:20;;;;;;;;;;;;;;;;;;5016256;28;19925;-67
2021/11/30 10:53:48;;;;;;;;;;;;;;;;;;5027098;28;19955;-68
2021/11/30 10:56:15;;;;;;;;;;;;;;;;;;5030012;28;20020;-69
2021/11/30 10:58:42;;;;;;;;;;;;;;;;;;5025510;28;19925;-67
2021/11/30 11:01:09;;;;;;;;;;;;;;;;;;5029249;28;20377;-67
2021/11/30 11:03:36;;;;;;;;;;;;;;;;;;5024769;28;19947;-68
2021/11/30 11:08:48;;;;;;;;;;;;;;;;;;5046723;28;19959;-67
2021/11/30 11:11:15;;;;;;;;;;;;;;;;;;5027112;28;19925;-68
2021/11/30 11:13:42;;;;;;;;;;;;;;;;;;5026820;28;19925;-68
2021/11/30 11:16:09;;;;;;;;;;;;;;;;;;5031001;28;19932;-68
2021/11/30 11:18:36;;;;;;;;;;;;;;;;;;5029380;28;20431;-67
2021/11/30 11:21:03;;;;;;;;;;;;;;;;;;5030425;28;19935;-70
2021/11/30 11:23:30;;;;;;;;;;;;;;;;;;5025245;28;19925;-70
2021/11/30 11:25:57;;;;;;;;;;;;;;;;;;5026726;28;19935;-68
2021/11/30 11:28:24;;;;;;;;;;;;;;;;;;5027510;28;19925;-68
2021/11/30 11:30:51;;;;;;;;;;;;;;;;;;5027622;28;19936;-67
2021/11/30 11:33:18;;;;;;;;;;;;;;;;;;5030488;28;20275;-68
2021/11/30 11:35:45;;;;;;;;;;;;;;;;;;5027908;28;19925;-67
2021/11/30 11:38:12;;;;;;;;;;;;;;;;;;5026671;28;19932;-67
2021/11/30 11:40:38;;;;;;;;;;;;;;;;;;5028090;28;20015;-67
2021/11/30 11:43:05;;;;;;;;;;;;;;;;;;5028334;28;19925;-70
2021/11/30 11:45:32;;;;;;;;;;;;;;;;;;5027699;28;20323;-67
2021/11/30 11:47:59;;;;;;;;;;;;;;;;;;5026733;28;19925;-67
2021/11/30 11:50:26;;;;;;;;;;;;;;;;;;5028092;28;19929;-67
2021/11/30 11:52:56;;;;;;;;;;;;;;;;;;5027683;28;19939;-67
2021/11/30 11:55:24;;;;;;;;;;;;;;;;;;5026887;28;20008;-68
2021/11/30 11:57:51;;;;;;;;;;;;;;;;;;5030231;28;20377;-68
2021/11/30 12:00:17;;;;;;;;;;;;;;;;;;5025315;28;19932;-67
2021/11/30 12:02:44;;;;;;;;;;;;;;;;;;5027033;28;19935;-69
2021/11/30 12:05:11;;;;;;;;;;;;;;;;;;5028090;28;19925;-66
2021/11/30 12:07:38;;;;;;;;;;;;;;;;;;5027066;28;19932;-68
2021/11/30 12:10:05;;;;;;;;;;;;;;;;;;5027382;28;20279;-67
2021/11/30 12:12:34;;;;;;;;;;;;;;;;;;5027005;28;20413;-69
2021/11/30 12:15:01;;;;;;;;;;;;;;;;;;5029125;28;19933;-67
2021/11/30 12:17:28;;;;;;;;;;;;;;;;;;5023738;28;19931;-68
2021/11/30 12:19:55;;;;;;;;;;;;;;;;;;5028042;28;20263;-67
2021/11/30 12:22:22;;;;;;;;;;;;;;;;;;5024249;28;19932;-66
2021/11/30 12:24:51;;;;;;;;;;;;;;;;;;5025159;28;19935;-67
2021/11/30 12:27:18;;;;;;;;;;;;;;;;;;5024030;28;20003;-68
2021/11/30 12:29:45;;;;;;;;;;;;;;;;;;5026449;28;20353;-68
2021/11/30 12:32:12;;;;;;;;;;;;;;;;;;5028811;28;19936;-70
2021/11/30 12:34:39;;;;;;;;;;;;;;;;;;5024190;28;19936;-67
2021/11/30 12:37:06;;;;;;;;;;;;;;;;;;5027127;28;19937;-67
2021/11/30 12:39:33;;;;;;;;;;;;;;;;;;5023115;28;19925;-68
2021/11/30 12:42:00;;;;;;;;;;;;;;;;;;5023545;28;20395;-66
2021/11/30 12:44:27;;;;;;;;;;;;;;;;;;5025240;28;19932;-67
2021/11/30 12:46:54;;;;;;;;;;;;;;;;;;5026480;28;20377;-69
2021/11/30 12:49:21;;;;;;;;;;;;;;;;;;5024453;28;19928;-68
2021/11/30 12:51:49;;;;;;;;;;;;;;;;;;5026640;28;19936;-68
2021/11/30 12:54:16;;;;;;;;;;;;;;;;;;5029128;28;19980;-68
2021/11/30 12:56:43;;;;;;;;;;;;;;;;;;5023539;28;19925;-67
2021/11/30 12:59:11;;;;;;;;;;;;;;;;;;5023670;28;19929;-69
2021/11/30 13:01:39;;;;;;;;;;;;;;;;;;5024574;28;20396;-67
2021/11/30 13:04:06;;;;;;;;;;;;;;;;;;5026818;28;20266;-67
2021/11/30 13:06:33;;;;;;;;;;;;;;;;;;5026472;28;19929;-68
2021/11/30 13:09:00;;;;;;;;;;;;;;;;;;5027574;28;19948;-69
2021/11/30 13:11:27;;;;;;;;;;;;;;;;;;5026318;28;19925;-67
2021/11/30 13:13:54;;;;;;;;;;;;;;;;;;5023504;28;20374;-66
2021/11/30 13:16:21;;;;;;;;;;;;;;;;;;5025115;28;19948;-67
2021/11/30 13:18:48;;;;;;;;;;;;;;;;;;5026031;28;19972;-68
2021/11/30 13:21:15;;;;;;;;;;;;;;;;;;5025826;28;20278;-67
2021/11/30 13:23:44;;;;;;;;;;;;;;;;;;5025013;28;19994;-67
2021/11/30 13:26:11;;;;;;;;;;;;;;;;;;5024677;28;19956;-68
2021/11/30 13:28:38;;;;;;;;;;;;;;;;;;5024317;28;20016;-68
2021/11/30 13:31:05;;;;;;;;;;;;;;;;;;5034750;28;19925;-68
2021/11/30 13:33:33;;;;;;;;;;;;;;;;;;5033201;28;19933;-70
2021/11/30 13:36:01;;;;;;;;;;;;;;;;;;5033781;28;19933;-68
2021/11/30 13:38:28;;;;;;;;;;;;;;;;;;5033269;28;19929;-68
2021/11/30 13:40:57;;;;;;;;;;;;;;;;;;5031193;28;21754;-67
2021/11/30 13:43:26;;;;;;;;;;;;;;;;;;5033913;28;19932;-67
2021/11/30 13:45:53;;;;;;;;;;;;;;;;;;5028781;28;19925;-68
2021/11/30 13:48:20;;;;;;;;;;;;;;;;;;5058925;22;19967;-65
2021/11/30 13:50:47;;;;;;;;;;;;;;;;;;5087256;28;19931;-65
2021/11/30 13:53:14;;;;;;;;;;;;;;;;;;5089654;28;19946;-65
2021/11/30 13:55:43;;;;;;;;;;;;;;;;;;5089357;28;19982;-66
2021/11/30 13:58:15;;;;;;;;;;;;;;;;;;5087893;28;20370;-65
2021/11/30 14:03:28;;;;;;;;;;;;;;;;;;5085102;27;19992;-66
2021/11/30 14:05:55;;;;;;;;;;;;;;;;;;5087510;28;19950;-65
2021/11/30 14:11:10;;;;;;;;;;;;;;;;;;5094458;27;19931;-67
2021/11/30 14:27:26;;;;;;;;;;;;;;;;;;5078148;27;19982;-66
2021/11/30 14:29:53;;;;;;;;;;;;;;;;;;5070265;28;19925;-66
2021/11/30 14:32:20;;;;;;;;;;;;;;;;;;5074443;28;20305;-66
2021/11/30 14:34:47;;;;;;;;;;;;;;;;;;5070331;28;20265;-66
2021/11/30 14:37:14;;;;;;;;;;;;;;;;;;5073319;28;19997;-66
2021/11/30 14:39:41;;;;;;;;;;;;;;;;;;5066151;28;19978;-66
2021/11/30 14:42:08;;;;;;;;;;;;;;;;;;5065935;28;20273;-65
2021/11/30 14:44:36;;;;;;;;;;;;;;;;;;5068364;28;19924;-68
2021/11/30 14:47:03;;;;;;;;;;;;;;;;;;5062794;28;20019;-66
2021/11/30 14:49:33;;;;;;;;;;;;;;;;;;5060484;28;19931;-66
2021/11/30 14:52:00;;;;;;;;;;;;;;;;;;5066646;28;20355;-65
2021/11/30 14:54:27;;;;;;;;;;;;;;;;;;5066038;28;19924;-65
2021/11/30 14:56:56;;;;;;;;;;;;;;;;;;5066936;28;20392;-63
2021/11/30 14:59:23;;;;;;;;;;;;;;;;;;5067169;28;19925;-64
2021/11/30 15:01:54;;;;;;;;;;;;;;;;;;5067771;28;20023;-65
2021/11/30 15:04:21;;;;;;;;;;;;;;;;;;5062074;28;19925;-64
2021/11/30 15:06:48;;;;;;;;;;;;;;;;;;5069309;28;19924;-64
2021/11/30 15:09:15;;;;;;;;;;;;;;;;;;5063282;28;19925;-68
2021/11/30 15:11:42;;;;;;;;;;;;;;;;;;5068489;28;20327;-65
2021/11/30 15:14:09;;;;;;;;;;;;;;;;;;5074853;28;19931;-64
2021/11/30 15:16:37;;;;;;;;;;;;;;;;;;5062583;28;19932;-65
2021/11/30 15:19:04;;;;;;;;;;;;;;;;;;5065793;28;20296;-66
2021/11/30 15:21:31;;;;;;;;;;;;;;;;;;5068259;28;19928;-67
2021/11/30 15:23:58;;;;;;;;;;;;;;;;;;5070041;28;19925;-68
2021/11/30 15:26:25;;;;;;;;;;;;;;;;;;5071320;28;20529;-67
2021/11/30 15:28:52;;;;;;;;;;;;;;;;;;5063646;28;19932;-65
2021/11/30 15:31:19;;;;;;;;;;;;;;;;;;5068520;28;19963;-67
2021/11/30 15:33:48;;;;;;;;;;;;;;;;;;5066923;28;19928;-67
2021/11/30 15:36:15;;;;;;;;;;;;;;;;;;5068451;28;20417;-65
2021/11/30 15:38:42;;;;;;;;;;;;;;;;;;5064273;28;19971;-65
2021/11/30 15:41:09;;;;;;;;;;;;;;;;;;5066137;28;19924;-66
2021/11/30 15:43:36;;;;;;;;;;;;;;;;;;5063144;28;19939;-67
2021/11/30 15:46:03;;;;;;;;;;;;;;;;;;5063849;28;19928;-63
2021/11/30 15:48:30;;;;;;;;;;;;;;;;;;5058544;28;19925;-67
2021/11/30 15:50:57;;;;;;;;;;;;;;;;;;5065611;28;19931;-65
2021/11/30 15:53:25;;;;;;;;;;;;;;;;;;5062386;28;19925;-67
2021/11/30 15:58:37;;;;;;;;;;;;;;;;;;5067564;28;20390;-65
2021/11/30 16:01:04;;;;;;;;;;;;;;;;;;5068268;28;19971;-67
2021/11/30 16:03:31;;;;;;;;;;;;;;;;;;5065680;28;20296;-64
2021/11/30 16:05:59;;;;;;;;;;;;;;;;;;5066906;28;19944;-66
2021/11/30 16:08:26;;;;;;;;;;;;;;;;;;5064957;28;20433;-67
2021/11/30 16:10:53;;;;;;;;;;;;;;;;;;5063963;28;20312;-67
2021/11/30 16:13:20;;;;;;;;;;;;;;;;;;5067612;28;19931;-65
2021/11/30 16:15:47;;;;;;;;;;;;;;;;;;5067386;28;20299;-66
2021/11/30 16:18:14;;;;;;;;;;;;;;;;;;5063739;28;19925;-65
2021/11/30 16:20:41;;;;;;;;;;;;;;;;;;5066603;28;20299;-67
2021/11/30 16:23:08;;;;;;;;;;;;;;;;;;5070582;28;19925;-65
2021/11/30 16:25:35;;;;;;;;;;;;;;;;;;5069625;28;19930;-66
2021/11/30 16:28:02;;;;;;;;;;;;;;;;;;5062425;28;20034;-64
2021/11/30 16:35:51;;;;;;;;;;;;;;;;;;5086362;28;20300;-67
2021/11/30 16:38:20;;;;;;;;;;;;;;;;;;5087480;27;19921;-64
2021/11/30 16:43:32;;;;;;;;;;;;;;;;;;5087427;28;19982;-64
2021/11/30 16:45:59;;;;;;;;;;;;;;;;;;5069937;27;19990;-66
2021/11/30 16:48:26;;;;;;;;;;;;;;;;;;5062745;28;19924;-65
2021/11/30 16:50:53;;;;;;;;;;;;;;;;;;5062153;28;20309;-64
2021/11/30 16:53:20;;;;;;;;;;;;;;;;;;5061192;28;20020;-65
2021/11/30 16:55:48;;;;;;;;;;;;;;;;;;5057699;28;19975;-65
2021/11/30 16:58:15;;;;;;;;;;;;;;;;;;5054804;28;19986;-66
2021/11/30 17:00:42;;;;;;;;;;;;;;;;;;5059380;28;19946;-66
2021/11/30 17:03:09;;;;;;;;;;;;;;;;;;5065652;28;19931;-66
2021/11/30 17:05:35;;;;;;;;;;;;;;;;;;5063521;28;20011;-66
2021/11/30 17:08:02;;;;;;;;;;;;;;;;;;5060498;28;20304;-66
2021/11/30 17:10:30;;;;;;;;;;;;;;;;;;5057303;28;20015;-66
2021/11/30 17:12:58;;;;;;;;;;;;;;;;;;5064522;28;20019;-66
2021/11/30 17:15:25;;;;;;;;;;;;;;;;;;5061336;28;19928;-66
2021/11/30 17:17:52;;;;;;;;;;;;;;;;;;5057873;28;19925;-66
2021/11/30 17:20:21;;;;;;;;;;;;;;;;;;5055342;28;19931;-66
2021/11/30 17:22:50;;;;;;;;;;;;;;;;;;5062773;28;19929;-67
2021/11/30 17:25:18;;;;;;;;;;;;;;;;;;5064948;28;20277;-66
2021/11/30 17:27:45;;;;;;;;;;;;;;;;;;5058897;28;19971;-66
2021/11/30 17:30:12;;;;;;;;;;;;;;;;;;5060665;28;19925;-67
2021/11/30 17:32:39;;;;;;;;;;;;;;;;;;5059003;28;20138;-67
2021/11/30 17:35:06;;;;;;;;;;;;;;;;;;5061140;28;19932;-67
2021/11/30 17:37:33;;;;;;;;;;;;;;;;;;5059496;28;19944;-67
2021/11/30 17:40:00;;;;;;;;;;;;;;;;;;5054989;28;20300;-66
2021/11/30 17:42:27;;;;;;;;;;;;;;;;;;5054917;28;19933;-67
2021/11/30 17:44:54;;;;;;;;;;;;;;;;;;5057911;28;19931;-66
2021/11/30 17:47:21;;;;;;;;;;;;;;;;;;5058244;28;20410;-67
2021/11/30 17:49:48;;;;;;;;;;;;;;;;;;5060230;28;20418;-67
2021/11/30 17:52:15;;;;;;;;;;;;;;;;;;5056050;28;20179;-66
2021/11/30 17:54:42;;;;;;;;;;;;;;;;;;5057556;28;19931;-67
2021/11/30 17:57:09;;;;;;;;;;;;;;;;;;5048475;28;19928;-67
2021/11/30 17:59:36;;;;;;;;;;;;;;;;;;5055154;28;20348;-67
2021/11/30 18:02:03;;;;;;;;;;;;;;;;;;5046401;28;20134;-67
2021/11/30 18:04:31;;;;;;;;;;;;;;;;;;5051955;28;20024;-66
2021/11/30 18:06:58;;;;;;;;;;;;;;;;;;5059967;28;19936;-66
2021/11/30 18:09:25;;;;;;;;;;;;;;;;;;5063303;28;19990;-66
2021/11/30 18:11:53;;;;;;;;;;;;;;;;;;5058923;28;20051;-66
2021/11/30 18:14:20;;;;;;;;;;;;;;;;;;5058794;28;19986;-67
2021/11/30 18:16:47;;;;;;;;;;;;;;;;;;5063287;28;19928;-66
2021/11/30 18:19:14;;;;;;;;;;;;;;;;;;5076167;28;19933;-66
2021/11/30 18:21:41;;;;;;;;;;;;;;;;;;5066182;28;19931;-65
2021/11/30 18:24:08;;;;;;;;;;;;;;;;;;5063846;28;19931;-63
2021/11/30 18:26:35;;;;;;;;;;;;;;;;;;5065250;28;19928;-66
2021/11/30 18:29:02;;;;;;;;;;;;;;;;;;5071877;28;19937;-66
2021/11/30 18:31:29;;;;;;;;;;;;;;;;;;5072025;28;19936;-65
2021/11/30 18:33:56;;;;;;;;;;;;;;;;;;5068851;28;20226;-66
2021/11/30 18:36:24;;;;;;;;;;;;;;;;;;5066425;28;19948;-65
2021/11/30 18:38:51;;;;;;;;;;;;;;;;;;5067599;28;19924;-67
2021/11/30 18:41:18;;;;;;;;;;;;;;;;;;5061365;28;19928;-67
2021/11/30 18:43:45;;;;;;;;;;;;;;;;;;5071816;28;19931;-66
2021/11/30 18:46:12;;;;;;;;;;;;;;;;;;5069500;28;19967;-66
2021/11/30 18:48:39;;;;;;;;;;;;;;;;;;5071803;28;19983;-65
2021/11/30 18:51:06;;;;;;;;;;;;;;;;;;5070448;28;19991;-67
2021/11/30 18:53:34;;;;;;;;;;;;;;;;;;5057792;28;19928;-65
2021/11/30 18:56:01;;;;;;;;;;;;;;;;;;5051705;28;19928;-66
2021/11/30 18:58:28;;;;;;;;;;;;;;;;;;5066344;28;19932;-64
2021/11/30 19:00:55;;;;;;;;;;;;;;;;;;5067589;28;20036;-67
2021/11/30 19:03:23;;;;;;;;;;;;;;;;;;5068501;28;19948;-66
2021/11/30 19:05:54;;;;;;;;;;;;;;;;;;5062709;28;20146;-67
2021/11/30 19:08:21;;;;;;;;;;;;;;;;;;5077532;28;19948;-63
2021/11/30 19:10:48;;;;;;;;;;;;;;;;;;5069691;28;19924;-66
2021/11/30 19:13:15;;;;;;;;;;;;;;;;;;5067626;28;19933;-67
2021/11/30 19:15:42;;;;;;;;;;;;;;;;;;5068428;28;20007;-68
2021/11/30 19:18:10;;;;;;;;;;;;;;;;;;5072586;28;20273;-67
2021/11/30 19:20:37;;;;;;;;;;;;;;;;;;5074310;28;19932;-63
2021/11/30 19:23:04;;;;;;;;;;;;;;;;;;5071608;28;19967;-68
2021/11/30 19:25:31;;;;;;;;;;;;;;;;;;5068630;28;19968;-65
2021/11/30 19:27:58;;;;;;;;;;;;;;;;;;5067036;28;19947;-66
2021/11/30 19:30:25;;;;;;;;;;;;;;;;;;5071575;28;20315;-67
2021/11/30 19:32:52;;;;;;;;;;;;;;;;;;5070195;28;20288;-66
2021/11/30 19:35:19;;;;;;;;;;;;;;;;;;5081513;28;19943;-65
2021/11/30 19:37:46;;;;;;;;;;;;;;;;;;5081947;28;19959;-64
2021/11/30 19:40:18;;;;;;;;;;;;;;;;;;5078054;28;19952;-64
2021/11/30 19:42:45;;;;;;;;;;;;;;;;;;5073542;28;19924;-64
2021/11/30 19:45:15;;;;;;;;;;;;;;;;;;5078830;28;20015;-66
2021/11/30 19:47:42;;;;;;;;;;;;;;;;;;5074313;28;19932;-66
2021/11/30 19:50:09;;;;;;;;;;;;;;;;;;5096613;22;19924;-69
2021/11/30 19:52:36;;;;;;;;;;;;;;;;;;5083015;28;19956;-69
2021/11/30 19:55:03;;;;;;;;;;;;;;;;;;5086905;28;19930;-68
2021/11/30 19:57:31;;;;;;;;;;;;;;;;;;5086545;28;20409;-65
2021/11/30 20:00:07;;;;;;;;;;;;;;;;;;5081586;28;20027;-67
2021/11/30 20:05:20;;;;;;;;;;;;;;;;;;5083604;28;20441;-67
2021/11/30 20:07:47;;;;;;;;;;;;;;;;;;5082118;28;19994;-67
2021/11/30 20:10:14;;;;;;;;;;;;;;;;;;5083836;28;20281;-66
2021/11/30 20:12:41;;;;;;;;;;;;;;;;;;5087472;28;20273;-68
2021/11/30 20:15:22;;;;;;;;;;;;;;;;;;5082313;28;19975;-67
2021/11/30 20:17:49;;;;;;;;;;;;;;;;;;5085798;28;20299;-67
2021/11/30 20:20:16;;;;;;;;;;;;;;;;;;5085297;28;19932;-68
2021/11/30 20:22:43;;;;;;;;;;;;;;;;;;5085536;28;19924;-66
2021/11/30 20:25:10;;;;;;;;;;;;;;;;;;5084350;28;20007;-67
2021/11/30 20:27:37;;;;;;;;;;;;;;;;;;5087771;28;19962;-67
2021/11/30 20:30:04;;;;;;;;;;;;;;;;;;5087286;28;19967;-67
2021/11/30 20:32:31;;;;;;;;;;;;;;;;;;5086544;28;20286;-70
2021/11/30 20:35:03;;;;;;;;;;;;;;;;;;5082452;28;19950;-67
2021/11/30 20:40:15;;;;;;;;;;;;;;;;;;5084660;28;19970;-70
2021/11/30 20:42:44;;;;;;;;;;;;;;;;;;5080514;28;20011;-68
2021/11/30 20:45:11;;;;;;;;;;;;;;;;;;5088734;28;19931;-67
2021/11/30 20:47:38;;;;;;;;;;;;;;;;;;5087483;28;19983;-70
2021/11/30 20:50:05;;;;;;;;;;;;;;;;;;5086205;28;19991;-67
2021/11/30 20:52:33;;;;;;;;;;;;;;;;;;5083254;28;20015;-67
2021/11/30 20:55:00;;;;;;;;;;;;;;;;;;5085596;28;19940;-68
2021/11/30 20:57:27;;;;;;;;;;;;;;;;;;5081706;28;19967;-68
2021/11/30 20:59:55;;;;;;;;;;;;;;;;;;5081247;28;20316;-69
2021/11/30 21:02:34;;;;;;;;;;;;;;;;;;5084315;28;20531;-65
2021/11/30 21:05:00;;;;;;;;;;;;;;;;;;5082982;28;19928;-66
2021/11/30 21:07:30;;;;;;;;;;;;;;;;;;5081194;28;19963;-69
2021/11/30 21:09:57;;;;;;;;;;;;;;;;;;5083002;28;19928;-69
2021/11/30 21:12:24;;;;;;;;;;;;;;;;;;5082865;28;20400;-68
2021/11/30 21:14:51;;;;;;;;;;;;;;;;;;5084502;28;19931;-65
2021/11/30 21:17:18;;;;;;;;;;;;;;;;;;5089355;28;19934;-68
2021/11/30 21:19:45;;;;;;;;;;;;;;;;;;5085796;28;19924;-67
2021/11/30 21:22:13;;;;;;;;;;;;;;;;;;5085707;28;20018;-69
2021/11/30 21:24:40;;;;;;;;;;;;;;;;;;5088722;28;19972;-68
2021/11/30 21:27:09;;;;;;;;;;;;;;;;;;5082715;28;19946;-66
2021/11/30 21:29:36;;;;;;;;;;;;;;;;;;5076588;28;19928;-67
2021/11/30 21:32:03;;;;;;;;;;;;;;;;;;5080176;28;19960;-69
2021/11/30 21:34:30;;;;;;;;;;;;;;;;;;5081865;28;19970;-67
2021/11/30 21:36:59;;;;;;;;;;;;;;;;;;5080782;28;20015;-68
2021/11/30 21:39:26;;;;;;;;;;;;;;;;;;5082499;28;19975;-68
2021/11/30 21:41:52;;;;;;;;;;;;;;;;;;5081268;28;20042;-67
2021/11/30 21:44:19;;;;;;;;;;;;;;;;;;5074954;28;19963;-67
2021/11/30 21:46:46;;;;;;;;;;;;;;;;;;5079888;28;19928;-68
2021/11/30 21:49:17;;;;;;;;;;;;;;;;;;5079749;28;19928;-67
2021/11/30 21:51:44;;;;;;;;;;;;;;;;;;5082361;28;19928;-67
2021/11/30 21:54:12;;;;;;;;;;;;;;;;;;5082122;28;19931;-67
2021/11/30 21:56:39;;;;;;;;;;;;;;;;;;5084133;28;19974;-67
2021/11/30 21:59:08;;;;;;;;;;;;;;;;;;5086278;28;19924;-68
2021/11/30 22:01:35;;;;;;;;;;;;;;;;;;5085712;28;20037;-68
2021/11/30 22:04:02;;;;;;;;;;;;;;;;;;5083622;28;19968;-66
2021/11/30 22:06:30;;;;;;;;;;;;;;;;;;5082959;28;19935;-67
2021/11/30 22:08:57;;;;;;;;;;;;;;;;;;5086326;28;19931;-66
2021/11/30 22:11:24;;;;;;;;;;;;;;;;;;5086148;28;19975;-67
2021/11/30 22:13:51;;;;;;;;;;;;;;;;;;5089133;28;20130;-68
2021/11/30 22:16:19;;;;;;;;;;;;;;;;;;5084424;28;19924;-68
2021/11/30 22:18:46;;;;;;;;;;;;;;;;;;5083943;28;19952;-66
2021/11/30 22:21:13;;;;;;;;;;;;;;;;;;5083698;28;20018;-66
2021/11/30 22:23:40;;;;;;;;;;;;;;;;;;5081885;28;19932;-68
2021/11/30 22:26:07;;;;;;;;;;;;;;;;;;5084563;28;19932;-67
2021/11/30 22:28:34;;;;;;;;;;;;;;;;;;5086293;28;20287;-68
2021/11/30 22:31:01;;;;;;;;;;;;;;;;;;5086597;28;20352;-68
2021/11/30 22:33:28;;;;;;;;;;;;;;;;;;5086821;28;20446;-67
2021/11/30 22:35:55;;;;;;;;;;;;;;;;;;5085995;28;20273;-67
2021/11/30 22:38:22;;;;;;;;;;;;;;;;;;5085065;28;19940;-66
2021/11/30 22:40:50;;;;;;;;;;;;;;;;;;5085559;28;19928;-68
2021/11/30 22:43:17;;;;;;;;;;;;;;;;;;5086330;28;20020;-68
2021/11/30 22:45:44;;;;;;;;;;;;;;;;;;5082590;28;19931;-67
2021/11/30 22:48:11;;;;;;;;;;;;;;;;;;5085233;28;19931;-68
2021/11/30 22:50:38;;;;;;;;;;;;;;;;;;5083352;28;19928;-65
2021/11/30 22:53:04;;;;;;;;;;;;;;;;;;5084450;28;20289;-67
2021/11/30 22:55:33;;;;;;;;;;;;;;;;;;5085262;28;19924;-68
2021/11/30 22:58:00;;;;;;;;;;;;;;;;;;5089752;28;20536;-69
2021/11/30 23:00:26;;;;;;;;;;;;;;;;;;5084187;28;19925;-67
2021/11/30 23:02:53;;;;;;;;;;;;;;;;;;5080857;28;19928;-67
2021/11/30 23:05:20;;;;;;;;;;;;;;;;;;5081148;28;20429;-67
2021/11/30 23:07:47;;;;;;;;;;;;;;;;;;5083630;28;19968;-67
2021/11/30 23:10:14;;;;;;;;;;;;;;;;;;5082947;28;20376;-66
2021/11/30 23:12:41;;;;;;;;;;;;;;;;;;5083481;28;19931;-67
2021/11/30 23:15:08;;;;;;;;;;;;;;;;;;5081368;28;20015;-68
2021/11/30 23:17:35;;;;;;;;;;;;;;;;;;5086069;28;19924;-66
2021/11/30 23:20:02;;;;;;;;;;;;;;;;;;5083685;28;19928;-66
2021/11/30 23:22:29;;;;;;;;;;;;;;;;;;5084576;28;20019;-67
2021/11/30 23:24:59;;;;;;;;;;;;;;;;;;5082464;28;19932;-67
2021/11/30 23:27:30;;;;;;;;;;;;;;;;;;5085398;28;19947;-66